createdAt,value
2019-03-30T00:03:18.455Z,63.70
2019-03-30T00:06:42.340Z,61.33
2019-03-30T00:10:06.604Z,59.93
2019-03-30T00:13:30.347Z,74.10
2019-03-30T00:16:54.190Z,65.17
2019-03-30T00:20:17.944Z,69.57
2019-03-30T00:23:41.818Z,56.93
2019-03-30T00:27:05.651Z,59.73
2019-03-30T00:30:29.357Z,61.20
2019-03-30T00:33:53.257Z,57.10
2019-03-30T00:37:17.201Z,56.00
2019-03-30T00:40:40.982Z,54.83
2019-03-30T00:44:04.772Z,58.13
2019-03-30T00:47:28.639Z,58.53
2019-03-30T00:50:52.446Z,56.70
2019-03-30T00:54:16.326Z,56.83
2019-03-30T00:57:40.316Z,57.10
2019-03-30T01:01:04.205Z,61.67
2019-03-30T01:04:28.004Z,57.73
2019-03-30T01:07:51.849Z,60.17
2019-03-30T01:11:16.235Z,60.33
2019-03-30T01:14:40.004Z,57.03
2019-03-30T01:18:03.846Z,56.73
2019-03-30T01:21:27.604Z,55.43
2019-03-30T01:24:51.488Z,53.67
2019-03-30T01:28:15.334Z,57.77
2019-03-30T01:31:39.265Z,51.47
2019-03-30T01:35:03.096Z,56.20
2019-03-30T01:38:32.313Z,57.33
2019-03-30T01:41:56.289Z,59.70
2019-03-30T01:45:20.111Z,65.33
2019-03-30T01:48:43.976Z,68.13
2019-03-30T01:52:07.876Z,67.93
2019-03-30T01:55:31.590Z,52.90
2019-03-30T01:58:55.523Z,56.90
2019-03-30T02:02:19.386Z,54.83
2019-03-30T02:05:43.126Z,71.47
2019-03-30T02:09:07.003Z,72.20
2019-03-30T02:12:30.784Z,58.60
2019-03-30T02:15:54.660Z,54.60
2019-03-30T02:19:18.467Z,51.43
2019-03-30T02:22:42.352Z,63.07
2019-03-30T02:26:06.184Z,79.47
2019-03-30T02:29:29.924Z,72.57
2019-03-30T02:32:53.918Z,63.60
2019-03-30T02:36:17.856Z,63.67
2019-03-30T02:39:41.631Z,59.30
2019-03-30T02:43:05.527Z,59.73
2019-03-30T02:46:29.402Z,54.73
2019-03-30T02:49:53.292Z,55.93
2019-03-30T02:53:17.269Z,61.50
2019-03-30T02:56:41.257Z,63.47
2019-03-30T03:00:08.862Z,82.10
2019-03-30T03:03:32.711Z,80.07
2019-03-30T03:06:56.653Z,57.60
2019-03-30T03:10:20.806Z,54.67
2019-03-30T03:13:44.632Z,65.07
2019-03-30T03:17:08.359Z,55.67
2019-03-30T03:20:32.241Z,58.00
2019-03-30T03:23:56.151Z,65.03
2019-03-30T03:27:20.281Z,62.40
2019-03-30T03:30:44.411Z,63.73
2019-03-30T03:34:08.390Z,54.80
2019-03-30T03:37:44.813Z,54.60
2019-03-30T03:40:58.272Z,55.33
2019-03-30T03:44:22.149Z,56.77
2019-03-30T03:47:45.873Z,62.27
2019-03-30T03:51:24.993Z,58.53
2019-03-30T03:54:36.240Z,55.60
2019-03-30T03:58:01.073Z,52.80
2019-03-30T04:01:27.600Z,55.93
2019-03-30T04:04:53.758Z,57.63
2019-03-30T04:08:17.747Z,55.40
2019-03-30T04:11:43.432Z,55.67
2019-03-30T04:15:08.348Z,56.37
2019-03-30T04:18:32.109Z,53.53
2019-03-30T04:21:56.207Z,55.13
2019-03-30T04:25:20.077Z,52.53
2019-03-30T04:28:43.868Z,52.17
2019-03-30T04:32:07.769Z,53.73
2019-03-30T04:35:31.621Z,52.30
2019-03-30T04:38:55.660Z,56.50
2019-03-30T04:42:19.434Z,51.73
2019-03-30T04:45:43.277Z,52.67
2019-03-30T04:49:07.077Z,53.20
2019-03-30T04:52:30.997Z,54.17
2019-03-30T04:55:54.852Z,52.60
2019-03-30T04:59:18.641Z,57.43
2019-03-30T05:02:42.561Z,55.43
2019-03-30T05:06:06.485Z,57.63
2019-03-30T05:09:30.318Z,56.97
2019-03-30T05:12:54.228Z,58.00
2019-03-30T05:16:18.729Z,60.60
2019-03-30T05:19:42.406Z,61.43
2019-03-30T05:23:06.211Z,58.93
2019-03-30T05:26:30.010Z,62.33
2019-03-30T05:29:53.781Z,59.57
2019-03-30T05:33:17.688Z,58.33
2019-03-30T05:36:42.236Z,61.20
2019-03-30T05:40:08.143Z,57.30
2019-03-30T05:43:31.891Z,57.60
2019-03-30T05:46:55.692Z,57.70
2019-03-30T05:50:19.524Z,56.80
2019-03-30T05:53:43.439Z,55.43
2019-03-30T05:57:07.482Z,57.63
2019-03-30T06:00:31.293Z,64.33
2019-03-30T06:03:55.126Z,62.20
2019-03-30T06:07:19.974Z,62.57
2019-03-30T06:10:43.723Z,64.93
2019-03-30T06:14:07.503Z,68.43
2019-03-30T06:17:31.532Z,65.37
2019-03-30T06:20:55.627Z,66.13
2019-03-30T06:24:19.521Z,64.97
2019-03-30T06:27:43.278Z,63.13
2019-03-30T06:31:07.104Z,63.90
2019-03-30T06:34:30.931Z,57.57
2019-03-30T06:37:54.716Z,59.90
2019-03-30T06:41:18.583Z,55.77
2019-03-30T06:44:42.595Z,58.00
2019-03-30T06:48:06.662Z,56.30
2019-03-30T06:51:30.437Z,54.90
2019-03-30T06:54:54.182Z,54.43
2019-03-30T06:58:18.026Z,55.70
2019-03-30T07:01:42.179Z,54.80
2019-03-30T07:05:08.235Z,54.60
2019-03-30T07:08:33.368Z,50.80
2019-03-30T07:12:00.066Z,53.70
2019-03-30T07:15:25.466Z,50.10
2019-03-30T07:18:51.047Z,49.57
2019-03-30T07:22:14.909Z,47.53
2019-03-30T07:25:38.652Z,45.97
2019-03-30T07:29:02.543Z,47.67
2019-03-30T07:32:26.347Z,44.27
2019-03-30T07:35:50.216Z,45.63
2019-03-30T07:39:14.047Z,42.33
2019-03-30T07:42:37.833Z,40.17
2019-03-30T07:46:01.634Z,36.20
2019-03-30T07:49:25.408Z,40.43
2019-03-30T07:52:49.153Z,38.40
2019-03-30T07:56:13.102Z,33.60
2019-03-30T07:59:37.087Z,33.23
2019-03-30T08:03:00.926Z,34.40
2019-03-30T08:06:24.743Z,34.13
2019-03-30T08:09:49.142Z,33.10
2019-03-30T08:13:13.066Z,33.07
2019-03-30T08:16:36.984Z,35.23
2019-03-30T08:20:00.782Z,33.20
2019-03-30T08:23:24.591Z,35.20
2019-03-30T08:26:48.452Z,31.10
2019-03-30T08:30:12.196Z,32.50
2019-03-30T08:33:36.214Z,32.33
2019-03-30T08:37:00.167Z,34.80
2019-03-30T08:40:24.278Z,34.53
2019-03-30T08:43:48.150Z,32.77
2019-03-30T08:47:14.065Z,33.80
2019-03-30T08:50:37.974Z,31.23
2019-03-30T08:54:01.685Z,32.47
2019-03-30T08:57:25.491Z,31.37
2019-03-30T09:00:49.835Z,30.03
2019-03-30T09:04:13.701Z,30.77
2019-03-30T09:07:37.587Z,30.07
2019-03-30T09:11:01.402Z,34.07
2019-03-30T09:14:25.239Z,31.70
2019-03-30T09:17:49.112Z,31.90
2019-03-30T09:21:12.860Z,31.97
2019-03-30T09:24:36.857Z,33.13
2019-03-30T09:28:00.620Z,32.93
2019-03-30T09:31:24.708Z,32.67
2019-03-30T09:34:48.688Z,32.63
2019-03-30T09:38:14.739Z,33.30
2019-03-30T09:41:37.994Z,33.63
2019-03-30T09:45:01.851Z,33.40
2019-03-30T09:48:25.615Z,32.63
2019-03-30T09:51:49.342Z,32.10
2019-03-30T09:55:13.163Z,32.67
2019-03-30T09:58:37.024Z,32.83
2019-03-30T10:02:01.689Z,29.57
2019-03-30T10:05:25.551Z,32.17
2019-03-30T10:08:49.372Z,28.40
2019-03-30T10:12:13.216Z,27.57
2019-03-30T10:15:37.204Z,28.27
2019-03-30T10:19:01.116Z,28.13
2019-03-30T10:22:24.977Z,28.60
2019-03-30T10:25:49.009Z,28.60
2019-03-30T10:29:13.137Z,29.53
2019-03-30T10:32:39.100Z,30.13
2019-03-30T10:36:02.914Z,27.30
2019-03-30T10:39:26.741Z,28.77
2019-03-30T10:42:52.096Z,29.37
2019-03-30T10:46:16.036Z,28.30
2019-03-30T10:49:39.947Z,26.10
2019-03-30T10:53:03.843Z,25.60
2019-03-30T10:56:27.664Z,23.90
2019-03-30T10:59:51.474Z,24.10
2019-03-30T11:03:15.364Z,25.17
2019-03-30T11:06:39.112Z,24.90
2019-03-30T11:10:03.206Z,24.60
2019-03-30T11:13:27.022Z,24.20
2019-03-30T11:16:50.796Z,23.60
2019-03-30T11:20:14.589Z,23.27
2019-03-30T11:23:38.307Z,21.63
2019-03-30T11:27:02.091Z,21.07
2019-03-30T11:30:26.203Z,20.83
2019-03-30T11:33:50.089Z,21.13
2019-03-30T11:37:13.906Z,20.17
2019-03-30T11:40:37.769Z,19.27
2019-03-30T11:44:01.547Z,20.03
2019-03-30T11:47:25.416Z,19.60
2019-03-30T11:50:49.259Z,18.93
2019-03-30T11:54:13.253Z,18.50
2019-03-30T11:57:37.198Z,17.90
2019-03-30T12:01:00.973Z,16.73
2019-03-30T12:04:24.766Z,15.43
2019-03-30T12:07:48.566Z,16.40
2019-03-30T12:11:12.319Z,16.60
2019-03-30T12:14:36.310Z,14.57
2019-03-30T12:18:00.067Z,15.50
2019-03-30T12:21:26.329Z,16.70
2019-03-30T12:24:50.170Z,14.93
2019-03-30T12:28:16.352Z,15.13
2019-03-30T12:31:43.022Z,14.67
2019-03-30T12:35:07.978Z,14.73
2019-03-30T12:38:31.891Z,15.60
2019-03-30T12:41:56.060Z,14.53
2019-03-30T12:45:19.904Z,14.47
2019-03-30T12:48:43.934Z,14.03
2019-03-30T12:52:07.897Z,14.53
2019-03-30T12:55:31.719Z,13.90
2019-03-30T12:58:55.913Z,13.90
2019-03-30T13:02:19.760Z,14.13
2019-03-30T13:05:43.855Z,13.83
2019-03-30T13:09:07.867Z,13.57
2019-03-30T13:12:31.621Z,13.83
2019-03-30T13:15:55.431Z,13.13
2019-03-30T13:19:24.381Z,12.97
2019-03-30T13:22:48.265Z,13.30
2019-03-30T13:26:12.148Z,13.07
2019-03-30T13:29:36.033Z,12.80
2019-03-30T13:32:59.866Z,12.67
2019-03-30T13:36:40.162Z,12.20
2019-03-30T13:40:05.584Z,12.57
2019-03-30T13:43:31.566Z,12.00
2019-03-30T13:46:55.637Z,11.77
2019-03-30T13:50:19.522Z,12.23
2019-03-30T13:53:43.383Z,13.20
2019-03-30T13:57:07.327Z,12.70
2019-03-30T14:00:31.279Z,13.67
2019-03-30T14:03:55.253Z,12.50
2019-03-30T14:07:19.294Z,12.67
2019-03-30T14:10:43.185Z,13.17
2019-03-30T14:14:06.974Z,14.40
2019-03-30T14:17:31.809Z,14.97
2019-03-30T14:20:55.857Z,15.90
2019-03-30T14:24:20.917Z,15.33
2019-03-30T14:27:44.859Z,14.23
2019-03-30T14:31:08.882Z,14.03
2019-03-30T14:34:33.219Z,14.37
2019-03-30T14:37:57.235Z,14.13
2019-03-30T14:41:21.221Z,14.10
2019-03-30T14:44:45.188Z,14.57
2019-03-30T14:48:09.066Z,13.60
2019-03-30T14:51:32.865Z,14.73
2019-03-30T14:54:57.036Z,15.00
2019-03-30T14:58:20.936Z,15.00
2019-03-30T15:01:45.937Z,13.17
2019-03-30T15:05:10.204Z,14.87
2019-03-30T15:08:36.166Z,14.43
2019-03-30T15:11:59.949Z,13.57
2019-03-30T15:15:23.818Z,13.37
2019-03-30T15:18:47.561Z,14.43
2019-03-30T15:22:11.366Z,14.50
2019-03-30T15:25:35.326Z,14.33
2019-03-30T15:28:59.649Z,14.73
2019-03-30T15:32:24.526Z,14.77
2019-03-30T15:35:48.272Z,14.27
2019-03-30T15:39:12.121Z,14.57
2019-03-30T15:42:39.711Z,13.17
2019-03-30T15:46:01.694Z,15.43
2019-03-30T15:49:25.501Z,15.40
2019-03-30T15:52:49.386Z,14.50
2019-03-30T15:56:13.182Z,15.73
2019-03-30T15:59:37.109Z,14.97
2019-03-30T16:03:00.960Z,14.73
2019-03-30T16:06:24.713Z,15.27
2019-03-30T16:09:48.644Z,14.60
2019-03-30T16:13:14.593Z,14.63
2019-03-30T16:16:38.352Z,13.97
2019-03-30T16:20:02.275Z,14.70
2019-03-30T16:23:35.273Z,14.53
2019-03-30T16:27:01.820Z,21.30
2019-03-30T16:30:25.685Z,22.87
2019-03-30T16:33:49.442Z,37.97
2019-03-30T16:37:13.224Z,26.93
2019-03-30T16:40:37.297Z,27.20
2019-03-30T16:44:01.408Z,28.13
2019-03-30T16:47:25.301Z,28.90
2019-03-30T16:50:49.392Z,33.40
2019-03-30T16:54:13.197Z,22.60
2019-03-30T16:57:43.550Z,23.60
2019-03-30T17:01:03.103Z,25.27
2019-03-30T17:04:29.593Z,24.23
2019-03-30T17:07:52.682Z,25.77
2019-03-30T17:11:17.686Z,27.80
2019-03-30T17:14:41.581Z,23.93
2019-03-30T17:18:05.414Z,48.13
2019-03-30T17:21:29.299Z,26.97
2019-03-30T17:24:53.206Z,22.43
2019-03-30T17:28:16.978Z,28.97
2019-03-30T17:31:40.939Z,27.63
2019-03-30T17:35:06.558Z,22.30
2019-03-30T17:38:31.341Z,26.03
2019-03-30T17:41:55.286Z,27.30
2019-03-30T17:45:19.231Z,36.87
2019-03-30T17:48:43.152Z,26.90
2019-03-30T17:52:06.984Z,37.43
2019-03-30T17:55:33.872Z,28.40
2019-03-30T17:58:58.163Z,33.60
2019-03-30T18:02:23.266Z,48.03
2019-03-30T18:05:47.221Z,44.17
2019-03-30T18:09:11.686Z,34.17
2019-03-30T18:12:35.491Z,30.40
2019-03-30T18:15:59.424Z,30.17
2019-03-30T18:19:23.124Z,28.60
2019-03-30T18:22:46.875Z,37.70
2019-03-30T18:26:10.798Z,37.33
2019-03-30T18:29:34.626Z,32.73
2019-03-30T18:32:58.511Z,32.50
2019-03-30T18:36:23.084Z,34.03
2019-03-30T18:39:47.418Z,31.30
2019-03-30T18:43:11.311Z,30.17
2019-03-30T18:46:35.146Z,40.53
2019-03-30T18:49:58.972Z,60.93
2019-03-30T18:53:22.854Z,41.87
2019-03-30T18:56:46.627Z,37.63
2019-03-30T19:00:12.072Z,39.00
2019-03-30T19:03:36.721Z,42.77
2019-03-30T19:07:00.531Z,48.73
2019-03-30T19:10:24.390Z,40.00
2019-03-30T19:13:51.296Z,41.57
2019-03-30T19:17:13.884Z,42.60
2019-03-30T19:20:38.213Z,47.50
2019-03-30T19:24:02.500Z,90.43
2019-03-30T19:27:27.012Z,65.13
2019-03-30T19:30:51.602Z,76.63
2019-03-30T19:34:16.322Z,69.83
2019-03-30T19:37:40.452Z,63.87
2019-03-30T19:41:04.340Z,52.87
2019-03-30T19:44:28.507Z,97.77
2019-03-30T19:47:52.798Z,92.20
2019-03-30T19:51:17.215Z,75.13
2019-03-30T19:54:41.304Z,64.57
2019-03-30T19:58:05.575Z,76.63
2019-03-30T20:01:29.627Z,108.50
2019-03-30T20:04:53.555Z,83.97
2019-03-30T20:08:17.369Z,50.40
2019-03-30T20:11:42.218Z,55.53
2019-03-30T20:15:07.794Z,54.77
2019-03-30T20:18:31.690Z,59.03
2019-03-30T20:21:57.268Z,59.20
2019-03-30T20:25:21.043Z,54.07
2019-03-30T20:28:44.909Z,54.03
2019-03-30T20:32:08.824Z,57.53
2019-03-30T20:35:32.737Z,54.03
2019-03-30T20:38:56.642Z,52.97
2019-03-30T20:42:20.508Z,60.40
2019-03-30T20:45:45.097Z,91.07
2019-03-30T20:49:08.969Z,86.47
2019-03-30T20:52:32.820Z,90.60
2019-03-30T20:55:56.694Z,98.23
2019-03-30T20:59:20.508Z,78.53
2019-03-30T21:02:44.336Z,91.00
2019-03-30T21:06:08.173Z,88.23
2019-03-30T21:09:32.036Z,86.30
2019-03-30T21:12:56.139Z,95.63
2019-03-30T21:16:19.950Z,106.03
2019-03-30T21:19:43.811Z,97.83
2019-03-30T21:23:07.742Z,60.13
2019-03-30T21:26:31.705Z,86.10
2019-03-30T21:29:55.560Z,143.47
2019-03-30T21:33:19.421Z,110.87
2019-03-30T21:36:44.648Z,93.90
2019-03-30T21:40:08.926Z,92.83
2019-03-30T21:43:32.832Z,94.03
2019-03-30T21:46:57.724Z,98.97
2019-03-30T21:50:21.531Z,116.93
2019-03-30T21:53:46.240Z,100.13
2019-03-30T21:57:10.002Z,104.17
2019-03-30T22:00:35.551Z,105.50
2019-03-30T22:03:59.405Z,122.23
2019-03-30T22:07:23.290Z,82.60
2019-03-30T22:10:47.225Z,92.97
2019-03-30T22:14:11.237Z,81.70
2019-03-30T22:17:35.103Z,75.87
2019-03-30T22:20:58.940Z,84.47
2019-03-30T22:24:22.854Z,104.63
2019-03-30T22:27:46.773Z,113.10
2019-03-30T22:31:10.651Z,109.50
2019-03-30T22:34:34.493Z,111.90
2019-03-30T22:37:58.408Z,110.73
2019-03-30T22:41:22.773Z,105.80
2019-03-30T22:44:46.812Z,110.60
2019-03-30T22:48:10.650Z,77.70
2019-03-30T22:51:34.513Z,80.97
2019-03-30T22:54:58.370Z,79.87
2019-03-30T22:58:22.152Z,103.13
2019-03-30T23:01:46.056Z,104.37
2019-03-30T23:05:09.938Z,98.50
2019-03-30T23:08:33.779Z,96.40
2019-03-30T23:11:57.664Z,101.70
2019-03-30T23:15:21.870Z,93.23
2019-03-30T23:18:45.756Z,81.37
2019-03-30T23:22:09.678Z,82.03
2019-03-30T23:25:33.440Z,93.93
2019-03-30T23:28:59.417Z,80.83
2019-03-30T23:32:22.818Z,78.67
2019-03-30T23:35:46.554Z,95.67
2019-03-30T23:39:10.431Z,103.80
2019-03-30T23:42:34.343Z,118.67
2019-03-30T23:45:58.192Z,116.07
2019-03-30T23:49:21.948Z,102.10
2019-03-30T23:52:45.735Z,94.80
2019-03-30T23:56:23.384Z,93.53
2019-03-30T23:59:47.329Z,96.60
